createdAt,value
2023-04-27T00:00:11.522Z,3.10
2023-04-27T00:03:06.154Z,3.06
2023-04-27T00:05:40.949Z,3.00
2023-04-27T00:08:10.291Z,3.02
2023-04-27T00:10:38.187Z,3.00
2023-04-27T00:13:06.670Z,3.00
2023-04-27T00:15:34.541Z,3.00
2023-04-27T00:18:02.951Z,3.00
2023-04-27T00:20:31.131Z,3.00
2023-04-27T00:22:59.060Z,3.00
2023-04-27T00:25:26.927Z,3.00
2023-04-27T00:27:55.641Z,3.00
2023-04-27T00:30:25.815Z,3.10
2023-04-27T00:32:54.068Z,3.10
2023-04-27T00:35:22.100Z,3.08
2023-04-27T00:37:50.852Z,3.00
2023-04-27T00:40:21.920Z,3.00
2023-04-27T00:42:52.124Z,3.00
2023-04-27T00:45:21.171Z,3.00
2023-04-27T00:47:51.725Z,3.00
2023-04-27T00:50:32.125Z,3.10
2023-04-27T00:53:02.364Z,3.10
2023-04-27T00:55:30.382Z,3.20
2023-04-27T00:57:58.236Z,3.10
2023-04-27T01:00:26.423Z,3.10
2023-04-27T01:02:56.140Z,3.10
2023-04-27T01:05:32.476Z,3.10
2023-04-27T01:08:03.270Z,3.10
2023-04-27T01:10:31.165Z,3.10
2023-04-27T01:12:59.385Z,3.12
2023-04-27T01:15:27.718Z,3.20
2023-04-27T01:18:04.541Z,3.20
2023-04-27T01:20:32.971Z,3.20
2023-04-27T01:23:00.950Z,3.10
2023-04-27T01:25:30.287Z,3.10
2023-04-27T01:27:58.130Z,3.00
2023-04-27T01:30:30.153Z,2.96
2023-04-27T01:32:58.111Z,2.90
2023-04-27T01:35:28.247Z,2.82
2023-04-27T01:37:59.729Z,2.80
2023-04-27T01:40:28.068Z,2.78
2023-04-27T01:42:56.243Z,2.70
2023-04-27T01:45:25.186Z,2.64
2023-04-27T01:47:53.813Z,2.60
2023-04-27T01:50:22.606Z,2.60
2023-04-27T01:52:53.404Z,2.60
2023-04-27T01:55:21.602Z,2.60
2023-04-27T01:57:49.935Z,2.70
2023-04-27T02:00:19.592Z,2.70
2023-04-27T02:02:47.676Z,2.70
2023-04-27T02:05:18.707Z,2.80
2023-04-27T02:07:47.620Z,2.80
2023-04-27T02:10:19.414Z,2.70
2023-04-27T02:12:51.559Z,2.70
2023-04-27T02:15:19.788Z,2.70
2023-04-27T02:17:50.195Z,2.70
2023-04-27T02:20:18.348Z,2.70
2023-04-27T02:22:46.357Z,2.68
2023-04-27T02:25:14.364Z,2.62
2023-04-27T02:27:43.823Z,2.68
2023-04-27T02:30:13.290Z,2.70
2023-04-27T02:32:42.293Z,2.70
2023-04-27T02:35:11.095Z,2.70
2023-04-27T02:37:39.679Z,2.72
2023-04-27T02:40:09.468Z,2.70
2023-04-27T02:42:39.445Z,2.62
2023-04-27T02:45:08.433Z,2.60
2023-04-27T02:47:37.372Z,2.60
2023-04-27T02:50:06.717Z,2.60
2023-04-27T02:52:37.732Z,2.60
2023-04-27T02:55:08.700Z,2.60
2023-04-27T02:57:39.279Z,2.60
2023-04-27T03:00:11.122Z,2.70
2023-04-27T03:02:40.041Z,2.70
2023-04-27T03:05:09.070Z,2.80
2023-04-27T03:07:37.964Z,2.84
2023-04-27T03:10:06.272Z,2.86
2023-04-27T03:12:35.472Z,2.80
2023-04-27T03:15:06.111Z,2.80
2023-04-27T03:17:34.621Z,2.84
2023-04-27T03:20:05.761Z,2.80
2023-04-27T03:22:33.588Z,2.80
2023-04-27T03:25:03.916Z,2.80
2023-04-27T03:27:31.884Z,2.70
2023-04-27T03:30:01.234Z,2.80
2023-04-27T03:32:29.099Z,2.80
2023-04-27T03:34:57.234Z,2.80
2023-04-27T03:37:25.328Z,2.70
2023-04-27T03:39:53.368Z,2.70
2023-04-27T03:42:23.568Z,2.70
2023-04-27T03:44:52.433Z,2.70
2023-04-27T03:47:20.183Z,2.70
2023-04-27T03:49:48.075Z,2.70
2023-04-27T03:52:16.977Z,2.64
2023-04-27T03:54:45.973Z,2.62
2023-04-27T03:57:16.098Z,2.70
2023-04-27T03:59:44.388Z,2.70
2023-04-27T04:02:12.257Z,2.80
2023-04-27T04:04:40.302Z,2.90
2023-04-27T04:07:08.316Z,2.82
2023-04-27T04:09:36.154Z,2.90
2023-04-27T04:12:04.470Z,2.90
2023-04-27T04:14:33.544Z,2.90
2023-04-27T04:17:02.607Z,2.90
2023-04-27T04:19:30.707Z,3.00
2023-04-27T04:21:59.222Z,3.00
2023-04-27T04:24:29.449Z,3.00
2023-04-27T04:27:00.559Z,3.00
2023-04-27T04:29:29.180Z,2.98
2023-04-27T04:31:57.340Z,2.90
2023-04-27T04:34:26.583Z,2.90
2023-04-27T04:36:57.471Z,2.90
2023-04-27T04:39:27.069Z,2.90
2023-04-27T04:41:55.150Z,2.90
2023-04-27T04:44:23.405Z,2.90
2023-04-27T04:46:51.436Z,2.98
2023-04-27T04:49:19.523Z,3.00
2023-04-27T04:51:47.472Z,2.98
2023-04-27T04:54:16.144Z,3.00
2023-04-27T04:56:44.070Z,3.00
2023-04-27T04:59:12.356Z,3.00
2023-04-27T05:01:42.162Z,2.94
2023-04-27T05:04:11.098Z,2.90
2023-04-27T05:06:39.209Z,2.90
2023-04-27T05:09:08.282Z,2.90
2023-04-27T05:11:36.298Z,2.90
2023-04-27T05:14:04.353Z,3.00
2023-04-27T05:16:33.163Z,3.00
2023-04-27T05:19:01.687Z,3.00
2023-04-27T05:21:29.523Z,3.00
2023-04-27T05:23:57.620Z,3.00
2023-04-27T05:26:27.633Z,3.10
2023-04-27T05:28:56.692Z,3.10
2023-04-27T05:31:25.430Z,3.16
2023-04-27T05:33:54.574Z,3.20
2023-04-27T05:36:22.746Z,3.30
2023-04-27T05:38:50.857Z,3.32
2023-04-27T05:41:18.741Z,3.40
2023-04-27T05:43:46.885Z,3.40
2023-04-27T05:46:15.363Z,3.50
2023-04-27T05:48:43.336Z,3.50
2023-04-27T05:51:11.669Z,3.56
2023-04-27T05:53:41.427Z,3.66
2023-04-27T05:56:11.856Z,3.76
2023-04-27T05:58:40.129Z,3.82
2023-04-27T06:01:08.403Z,3.98
2023-04-27T06:03:36.986Z,4.10
2023-04-27T06:06:05.596Z,4.20
2023-04-27T06:08:38.596Z,4.34
2023-04-27T06:11:07.308Z,4.46
2023-04-27T06:13:35.113Z,4.50
2023-04-27T06:16:03.122Z,4.58
2023-04-27T06:18:31.763Z,4.60
2023-04-27T06:21:01.875Z,4.64
2023-04-27T06:23:30.636Z,4.70
2023-04-27T06:25:59.069Z,4.78
2023-04-27T06:28:27.801Z,4.84
2023-04-27T06:30:56.426Z,4.90
2023-04-27T06:33:24.368Z,5.00
2023-04-27T06:35:52.276Z,5.04
2023-04-27T06:38:20.134Z,5.12
2023-04-27T06:40:53.364Z,5.22
2023-04-27T06:43:21.247Z,5.38
2023-04-27T06:45:49.125Z,5.50
2023-04-27T06:48:17.327Z,5.60
2023-04-27T06:50:46.251Z,5.70
2023-04-27T06:53:14.278Z,5.80
2023-04-27T06:55:44.983Z,5.92
2023-04-27T06:58:14.036Z,6.06
2023-04-27T07:00:41.867Z,6.12
2023-04-27T07:03:10.462Z,6.20
2023-04-27T07:05:38.867Z,6.30
2023-04-27T07:08:08.823Z,6.40
2023-04-27T07:10:37.147Z,6.50
2023-04-27T07:13:07.282Z,6.58
2023-04-27T07:15:36.992Z,6.60
2023-04-27T07:18:05.130Z,6.70
2023-04-27T07:20:33.418Z,6.76
2023-04-27T07:23:01.410Z,6.80
2023-04-27T07:25:29.670Z,6.86
2023-04-27T07:27:59.866Z,6.90
2023-04-27T07:30:31.140Z,7.00
2023-04-27T07:33:01.123Z,7.00
2023-04-27T07:35:29.207Z,7.10
2023-04-27T07:38:03.247Z,7.20
2023-04-27T07:40:32.914Z,7.20
2023-04-27T07:43:01.092Z,7.30
2023-04-27T07:45:33.549Z,7.30
2023-04-27T07:48:02.007Z,7.40
2023-04-27T07:50:31.084Z,7.40
2023-04-27T07:53:02.320Z,7.50
2023-04-27T07:55:30.820Z,7.50
2023-04-27T07:57:59.245Z,7.58
2023-04-27T08:00:27.266Z,7.60
2023-04-27T08:02:56.705Z,7.70
2023-04-27T08:05:26.118Z,7.70
2023-04-27T08:07:54.953Z,7.80
2023-04-27T08:10:24.034Z,7.80
2023-04-27T08:12:52.405Z,7.90
2023-04-27T08:15:21.534Z,7.90
2023-04-27T08:17:49.893Z,8.08
2023-04-27T08:20:17.823Z,8.18
2023-04-27T08:22:46.055Z,8.30
2023-04-27T08:25:13.913Z,8.32
2023-04-27T08:27:41.972Z,8.40
2023-04-27T08:30:11.438Z,8.52
2023-04-27T08:32:40.122Z,8.60
2023-04-27T08:35:08.336Z,8.70
2023-04-27T08:37:36.419Z,8.80
2023-04-27T08:40:10.096Z,8.98
2023-04-27T08:42:42.107Z,9.10
2023-04-27T08:45:11.391Z,9.16
2023-04-27T08:47:43.906Z,9.20
2023-04-27T08:50:12.848Z,9.30
2023-04-27T08:52:47.432Z,9.34
2023-04-27T08:55:16.713Z,9.40
2023-04-27T08:57:56.283Z,9.40
2023-04-27T09:00:26.853Z,9.50
2023-04-27T09:02:55.320Z,9.60
2023-04-27T09:05:24.268Z,9.70
2023-04-27T09:08:02.275Z,9.66
2023-04-27T09:10:30.947Z,9.70
2023-04-27T09:13:01.289Z,9.70
2023-04-27T09:15:29.702Z,9.80
2023-04-27T09:17:59.623Z,9.90
2023-04-27T09:20:28.769Z,10.00
2023-04-27T09:23:02.831Z,10.02
2023-04-27T09:25:33.725Z,10.10
2023-04-27T09:28:02.047Z,10.10
2023-04-27T09:30:30.704Z,10.00
2023-04-27T09:33:02.682Z,10.00
2023-04-27T09:35:33.578Z,10.00
2023-04-27T09:38:01.612Z,10.08
2023-04-27T09:40:31.511Z,10.10
2023-04-27T09:43:04.402Z,10.20
2023-04-27T09:45:34.705Z,10.30
2023-04-27T09:48:06.605Z,10.40
2023-04-27T09:50:41.269Z,10.50
2023-04-27T09:53:14.508Z,10.48
2023-04-27T09:56:02.021Z,10.50
2023-04-27T09:58:47.841Z,10.60
2023-04-27T10:01:52.130Z,10.50
2023-04-27T10:05:03.997Z,10.60
2023-04-27T10:07:33.377Z,10.60
2023-04-27T10:10:05.326Z,10.80
2023-04-27T10:12:36.801Z,10.80
2023-04-27T10:15:20.174Z,10.80
2023-04-27T10:17:58.910Z,10.74
2023-04-27T10:20:33.745Z,10.70
2023-04-27T10:23:01.689Z,10.80
2023-04-27T10:25:40.731Z,10.84
2023-04-27T10:28:16.176Z,10.90
2023-04-27T10:30:52.289Z,10.90
2023-04-27T10:33:22.941Z,10.88
2023-04-27T10:35:56.944Z,10.90
2023-04-27T10:38:31.045Z,10.92
2023-04-27T10:41:05.718Z,11.10
2023-04-27T10:43:36.109Z,11.16
2023-04-27T10:46:14.210Z,11.20
2023-04-27T10:48:44.998Z,11.20
2023-04-27T10:51:18.262Z,11.30
2023-04-27T10:53:48.077Z,11.30
2023-04-27T10:56:15.996Z,11.30
2023-04-27T10:58:48.748Z,11.20
2023-04-27T11:01:29.438Z,11.20
2023-04-27T11:04:03.679Z,11.12
2023-04-27T11:06:33.604Z,11.20
2023-04-27T11:09:01.883Z,11.08
2023-04-27T11:11:29.803Z,11.00
2023-04-27T11:13:58.976Z,11.00
2023-04-27T11:16:26.849Z,11.20
2023-04-27T11:18:54.878Z,11.40
2023-04-27T11:21:23.667Z,11.60
2023-04-27T11:23:51.570Z,11.70
2023-04-27T11:26:23.795Z,11.90
2023-04-27T11:29:10.310Z,11.90
2023-04-27T11:31:48.835Z,11.74
2023-04-27T11:34:23.003Z,11.90
2023-04-27T11:39:41.886Z,12.00
2023-04-27T11:42:24.575Z,12.20
2023-04-27T11:45:01.842Z,12.20
2023-04-27T11:47:33.045Z,12.30
2023-04-27T11:50:08.640Z,12.40
2023-04-27T11:52:40.466Z,12.60
2023-04-27T11:55:16.022Z,12.60
2023-04-27T11:57:44.201Z,12.70
2023-04-27T12:00:14.670Z,12.70
2023-04-27T12:02:44.432Z,12.80
2023-04-27T12:05:13.643Z,12.90
2023-04-27T12:07:43.345Z,12.80
2023-04-27T12:10:11.879Z,12.54
2023-04-27T12:12:39.886Z,12.30
2023-04-27T12:15:10.638Z,12.10
2023-04-27T12:17:39.858Z,11.84
2023-04-27T12:20:08.657Z,11.80
2023-04-27T12:22:36.582Z,11.80
2023-04-27T12:25:06.958Z,11.80
2023-04-27T12:27:34.789Z,11.70
2023-04-27T12:30:04.601Z,11.62
2023-04-27T12:32:32.480Z,11.70
2023-04-27T12:35:00.695Z,11.64
2023-04-27T12:37:28.477Z,11.50
2023-04-27T12:39:58.849Z,11.40
2023-04-27T12:42:27.545Z,11.20
2023-04-27T12:44:55.611Z,11.20
2023-04-27T12:47:49.744Z,11.20
2023-04-27T12:50:16.393Z,11.10
2023-04-27T12:52:44.888Z,11.06
2023-04-27T12:55:24.831Z,11.00
2023-04-27T12:58:00.962Z,11.08
2023-04-27T13:00:29.874Z,11.10
2023-04-27T13:03:00.858Z,11.10
2023-04-27T13:05:31.887Z,11.00
2023-04-27T13:08:03.218Z,11.00
2023-04-27T13:10:31.188Z,11.00
2023-04-27T13:13:00.088Z,11.08
2023-04-27T13:15:29.724Z,11.00
2023-04-27T13:18:01.414Z,11.00
2023-04-27T13:20:31.037Z,11.00
2023-04-27T13:22:58.838Z,10.90
2023-04-27T13:25:27.275Z,10.90
2023-04-27T13:27:58.022Z,10.90
2023-04-27T13:30:26.089Z,10.90
2023-04-27T13:32:54.435Z,10.90
2023-04-27T13:35:23.886Z,10.90
2023-04-27T13:37:54.048Z,11.00
2023-04-27T13:40:22.608Z,11.00
2023-04-27T13:42:51.045Z,10.96
2023-04-27T13:45:18.964Z,11.00
2023-04-27T13:47:49.364Z,11.00
2023-04-27T13:50:20.337Z,11.20
2023-04-27T13:52:49.435Z,11.40
2023-04-27T13:55:17.592Z,11.30
2023-04-27T13:57:46.846Z,11.24
2023-04-27T14:00:15.612Z,11.30
2023-04-27T14:02:43.606Z,11.40
2023-04-27T14:05:14.657Z,11.58
2023-04-27T14:07:42.547Z,11.72
2023-04-27T14:10:11.180Z,11.70
2023-04-27T14:12:41.745Z,11.60
2023-04-27T14:15:10.645Z,11.50
2023-04-27T14:17:38.609Z,11.40
2023-04-27T14:20:08.034Z,11.38
2023-04-27T14:22:39.077Z,11.36
2023-04-27T14:25:08.219Z,11.38
2023-04-27T14:27:37.110Z,11.30
2023-04-27T14:30:07.399Z,11.30
2023-04-27T14:32:37.755Z,11.30
2023-04-27T14:35:06.131Z,11.30
2023-04-27T14:37:34.137Z,11.30
2023-04-27T14:40:04.476Z,11.30
2023-04-27T14:42:32.343Z,11.34
2023-04-27T14:45:00.306Z,11.50
2023-04-27T14:47:28.406Z,11.72
2023-04-27T14:49:57.919Z,12.10
2023-04-27T14:52:29.251Z,12.30
2023-04-27T14:54:57.410Z,12.50
2023-04-27T14:57:25.780Z,12.60
2023-04-27T14:59:54.202Z,12.80
2023-04-27T15:02:22.154Z,13.10
2023-04-27T15:04:51.264Z,13.40
2023-04-27T15:07:22.005Z,13.40
2023-04-27T15:09:51.522Z,13.50
2023-04-27T15:12:19.747Z,13.48
2023-04-27T15:14:52.910Z,13.30
2023-04-27T15:17:20.996Z,13.06
2023-04-27T15:19:49.288Z,13.00
2023-04-27T15:22:25.615Z,13.10
2023-04-27T15:24:53.774Z,13.20
2023-04-27T15:27:22.050Z,13.18
2023-04-27T15:29:54.674Z,13.30
2023-04-27T15:32:30.097Z,13.30
2023-04-27T15:34:58.817Z,13.30
2023-04-27T15:37:31.473Z,13.40
2023-04-27T15:40:00.054Z,13.60
2023-04-27T15:42:30.641Z,13.70
2023-04-27T15:45:01.159Z,13.70
2023-04-27T15:47:29.031Z,13.80
2023-04-27T15:49:58.288Z,14.00
2023-04-27T15:52:28.766Z,13.90
2023-04-27T15:54:57.265Z,13.72
2023-04-27T15:57:26.154Z,13.60
2023-04-27T15:59:54.552Z,13.50
2023-04-27T16:02:25.330Z,13.50
2023-04-27T16:04:56.735Z,13.50
2023-04-27T16:07:24.848Z,13.50
2023-04-27T16:09:52.628Z,13.50
2023-04-27T16:12:20.566Z,13.40
2023-04-27T16:14:48.631Z,13.40
2023-04-27T16:17:19.683Z,13.40
2023-04-27T16:19:49.624Z,13.50
2023-04-27T16:22:17.604Z,13.64
2023-04-27T16:24:46.097Z,13.70
2023-04-27T16:27:14.235Z,13.84
2023-04-27T16:29:42.017Z,14.00
2023-04-27T16:32:11.071Z,14.00
2023-04-27T16:34:39.151Z,13.90
2023-04-27T16:37:08.497Z,13.70
2023-04-27T16:39:36.403Z,13.70
2023-04-27T16:42:05.439Z,13.90
2023-04-27T16:44:33.292Z,13.80
2023-04-27T16:47:01.648Z,13.78
2023-04-27T16:49:29.460Z,13.70
2023-04-27T16:51:58.491Z,13.70
2023-04-27T16:54:28.990Z,13.68
2023-04-27T16:56:57.095Z,13.70
2023-04-27T16:59:26.009Z,13.70
2023-04-27T17:01:56.510Z,13.60
2023-04-27T17:04:24.765Z,13.50
2023-04-27T17:06:52.763Z,13.30
2023-04-27T17:09:20.523Z,13.30
2023-04-27T17:11:48.716Z,13.24
2023-04-27T17:14:19.909Z,13.20
2023-04-27T17:16:47.866Z,13.10
2023-04-27T17:19:15.926Z,12.90
2023-04-27T17:21:45.327Z,12.78
2023-04-27T17:24:13.458Z,12.60
2023-04-27T17:26:41.702Z,12.50
2023-04-27T17:29:10.558Z,12.40
2023-04-27T17:31:42.520Z,12.30
2023-04-27T17:34:12.321Z,12.20
2023-04-27T17:36:40.796Z,12.10
2023-04-27T17:39:09.055Z,12.00
2023-04-27T17:41:39.517Z,11.90
2023-04-27T17:44:08.121Z,11.80
2023-04-27T17:46:38.435Z,11.60
2023-04-27T17:49:08.810Z,11.50
2023-04-27T17:51:37.203Z,11.40
2023-04-27T17:54:05.139Z,11.30
2023-04-27T17:56:48.369Z,11.20
2023-04-27T17:59:16.966Z,11.10
2023-04-27T18:01:48.655Z,11.00
2023-04-27T18:04:17.168Z,10.90
2023-04-27T18:06:45.196Z,10.80
2023-04-27T18:09:16.416Z,10.76
2023-04-27T18:11:47.272Z,10.70
2023-04-27T18:14:15.154Z,10.60
2023-04-27T18:16:43.037Z,10.60
2023-04-27T18:19:12.570Z,10.60
2023-04-27T18:21:41.133Z,10.50
2023-04-27T18:24:12.120Z,10.40
2023-04-27T18:26:41.521Z,10.30
2023-04-27T18:29:09.748Z,10.30
2023-04-27T18:31:38.302Z,10.20
2023-04-27T18:34:06.567Z,10.16
2023-04-27T18:36:38.566Z,10.10
2023-04-27T18:39:12.858Z,10.08
2023-04-27T18:41:41.250Z,10.00
2023-04-27T18:44:09.344Z,9.90
2023-04-27T18:46:40.570Z,9.88
2023-04-27T18:49:08.499Z,9.80
2023-04-27T18:51:39.378Z,9.80
2023-04-27T18:54:09.233Z,9.70
2023-04-27T18:56:37.796Z,9.60
2023-04-27T18:59:05.826Z,9.54
2023-04-27T19:01:33.937Z,9.50
2023-04-27T19:04:04.288Z,9.40
2023-04-27T19:06:33.339Z,9.32
2023-04-27T19:09:02.160Z,9.30
2023-04-27T19:11:30.374Z,9.24
2023-04-27T19:13:59.955Z,9.20
2023-04-27T19:16:28.894Z,9.20
2023-04-27T19:18:57.356Z,9.14
2023-04-27T19:21:28.315Z,9.10
2023-04-27T19:23:56.717Z,9.10
2023-04-27T19:26:26.032Z,9.00
2023-04-27T19:28:58.009Z,8.90
2023-04-27T19:31:29.591Z,8.90
2023-04-27T19:34:04.139Z,8.80
2023-04-27T19:36:34.040Z,8.70
2023-04-27T19:39:03.857Z,8.66
2023-04-27T19:41:33.241Z,8.60
2023-04-27T19:44:08.201Z,8.50
2023-04-27T19:46:36.189Z,8.48
2023-04-27T19:49:07.003Z,8.40
2023-04-27T19:51:35.283Z,8.40
2023-04-27T19:54:05.388Z,8.30
2023-04-27T19:56:34.321Z,8.30
2023-04-27T19:59:02.880Z,8.24
2023-04-27T20:01:31.676Z,8.20
2023-04-27T20:04:02.206Z,8.10
2023-04-27T20:06:31.149Z,8.10
2023-04-27T20:08:58.976Z,8.00
2023-04-27T20:11:26.885Z,8.00
2023-04-27T20:13:54.721Z,7.90
2023-04-27T20:16:25.832Z,7.90
2023-04-27T20:18:55.517Z,7.80
2023-04-27T20:21:26.378Z,7.70
2023-04-27T20:23:54.156Z,7.60
2023-04-27T20:26:24.605Z,7.58
2023-04-27T20:28:52.920Z,7.50
2023-04-27T20:31:21.624Z,7.50
2023-04-27T20:33:51.588Z,7.40
2023-04-27T20:36:20.057Z,7.30
2023-04-27T20:38:47.911Z,7.30
2023-04-27T20:41:15.889Z,7.26
2023-04-27T20:43:47.831Z,7.20
2023-04-27T20:46:17.223Z,7.20
2023-04-27T20:48:52.520Z,7.16
2023-04-27T20:51:20.897Z,7.10
2023-04-27T20:53:48.815Z,7.06
2023-04-27T20:56:17.097Z,7.00
2023-04-27T20:58:45.066Z,6.90
2023-04-27T21:01:12.958Z,6.90
2023-04-27T21:03:43.270Z,6.84
2023-04-27T21:06:12.594Z,6.80
2023-04-27T21:08:40.588Z,6.70
2023-04-27T21:11:09.517Z,6.70
2023-04-27T21:13:39.025Z,6.60
2023-04-27T21:16:08.141Z,6.50
2023-04-27T21:18:36.714Z,6.40
2023-04-27T21:21:06.959Z,6.40
2023-04-27T21:23:36.080Z,6.30
2023-04-27T21:26:03.948Z,6.22
2023-04-27T21:28:32.603Z,6.20
2023-04-27T21:31:00.632Z,6.10
2023-04-27T21:33:31.794Z,6.10
2023-04-27T21:36:00.049Z,6.06
2023-04-27T21:38:27.873Z,6.02
2023-04-27T21:40:55.704Z,6.00
2023-04-27T21:43:24.044Z,6.00
2023-04-27T21:45:52.026Z,5.96
2023-04-27T21:48:21.074Z,5.90
2023-04-27T21:50:48.982Z,5.90
2023-04-27T21:53:17.066Z,5.80
2023-04-27T21:55:45.959Z,5.80
2023-04-27T21:58:14.319Z,5.70
2023-04-27T22:00:42.668Z,5.70
2023-04-27T22:03:10.610Z,5.62
2023-04-27T22:05:40.334Z,5.60
2023-04-27T22:08:09.604Z,5.60
2023-04-27T22:10:41.684Z,5.60
2023-04-27T22:13:18.778Z,5.60
2023-04-27T22:15:48.598Z,5.60
2023-04-27T22:18:19.813Z,5.50
2023-04-27T22:20:49.671Z,5.50
2023-04-27T22:23:21.702Z,5.40
2023-04-27T22:25:50.969Z,5.20
2023-04-27T22:28:19.087Z,5.20
2023-04-27T22:30:47.400Z,5.02
2023-04-27T22:33:16.680Z,4.90
2023-04-27T22:35:45.499Z,4.90
2023-04-27T22:38:14.643Z,4.90
2023-04-27T22:40:43.764Z,4.90
2023-04-27T22:43:11.556Z,4.80
2023-04-27T22:45:40.294Z,4.80
2023-04-27T22:48:08.600Z,4.74
2023-04-27T22:50:38.812Z,4.70
2023-04-27T22:53:07.472Z,4.60
2023-04-27T22:55:35.295Z,4.50
2023-04-27T22:58:03.119Z,4.50
2023-04-27T23:00:31.331Z,4.40
2023-04-27T23:02:59.396Z,4.32
2023-04-27T23:05:29.192Z,4.32
2023-04-27T23:07:57.431Z,4.40
2023-04-27T23:10:26.880Z,4.32
2023-04-27T23:12:58.046Z,4.30
2023-04-27T23:15:26.354Z,4.36
2023-04-27T23:17:54.650Z,4.30
2023-04-27T23:22:53.799Z,4.12
2023-04-27T23:25:22.183Z,4.10
2023-04-27T23:27:52.149Z,4.10
2023-04-27T23:30:23.677Z,4.10
2023-04-27T23:32:52.119Z,4.10
2023-04-27T23:35:20.943Z,4.00
2023-04-27T23:37:49.995Z,3.90
2023-04-27T23:40:19.391Z,3.86
2023-04-27T23:42:48.228Z,3.80
2023-04-27T23:45:18.081Z,3.84
2023-04-27T23:47:46.408Z,3.80
2023-04-27T23:50:15.693Z,3.80
2023-04-27T23:52:43.599Z,3.78
2023-04-27T23:55:12.388Z,3.70
2023-04-27T23:57:40.237Z,3.70
